Harlingen, TX

7:06 PM CST on March 02, 2015 (GMT -0600)
KNIGHTWOOD/WD5ADC | Change Station
CLOSE
Current Station
Personal Weather Station
Location: Harlingen, TX
Elevation: 49 ft
Nearby Weather Stations
Active Advisory: Dense Fog Advisory

Elev 49 ft 26.22 °N, 97.69 °W | Updated 5 minutes ago

Fog
Fog
55.9 °F
Feels Like 55.9 °F
N
0.0
Wind Variable Wind from North
Gusts 3.0 mph

Today
High -- | Low -- °F
--% Chance of Precip.
Yesterday
High -- | Low -- °F
Precip. -- in
6:53 AM 6:32 PM
Waxing Gibbous, 93% visible
Pressure 30.11 in
Visibility 1.0 miles
Clouds
Dew Point 55 °F
Humidity 98%
Rainfall 0.00 in
Snow Depth Not available.
UV Not available.
Pollen 9.00 out of 12
Air Quality Not available.
Flu Activity Not available.
METAR KHRL 030052Z 36006KT 1SM BR VV003 14/13 A3011 RMK AO2 SLP195 T01390133

More Conditions Fewer Conditions

Pressure 30.11 in
Visibility 1.0 miles
Clouds
Dew Point 55 °F
Humidity 98%
Rainfall 0.00 in
Snow Depth Not available.
UV Not available.
Pollen 9.00 out of 12
Air Quality Not available.
Flu Activity Not available.
METAR KHRL 030052Z 36006KT 1SM BR VV003 14/13 A3011 RMK AO2 SLP195 T01390133

More Conditions Fewer Conditions

10-Day Weather Forecast

Almanac

Astronomy

Mar. 02, 2015 Rise Set
Actual Time
Civil Twilight
Nautical Twilight
Astronomical Twilight
Moon
Length of Visible Light
Length of Day
Tomorrow will be .
, % of the Moon is Illuminated

Today's Extremes

State Highs State Lows

Community

WunderPhotos

Upload Photos

1,802,016 photos uploaded!

WunderBlogs® & News

Nearby

Air Quality

  Air Quality AQ Index Pollutant
Not available.

Snow Depth

Station Depth Elevation

Earthquake Activity

City Distance Mag. Time & Date
Minimum magnitude displayed is 2.5.

Coastal Water Temperatures

Place Temperature

Nearby Weather Stations

Dense Fog Advisory
Statement as of 5:21 PM CST on March 02, 2015

... Dense fog advisory in effect until 10 am CST Tuesday for inland
Cameron... inland Willacy and Hidalgo counties...

The National Weather Service in Brownsville has expanded the dense
fog advisory... which is in effect until 10 am CST Tuesday for
inland Cameron... inland Willacy and Hidalgo counties.

* Visibility... visibility values of one quarter of a mile or
less... especially on Padre Island.

* Impacts... travel will be difficult due to poor visibility.

Precautionary/preparedness actions...

Motorists should slow down... use low beam headlights... and
maintain a safe distance between vehicles.